Time;durP1;ratioP1;P1;durP2;ratioP2;P2;SDS_P1;SDS_P2;PMS_P1;PMS_P2;Temp;Humidity;BMP_temperature;BMP_pressure;BME280_temperature;BME280_humidity;BME280_pressure;Samples;Min_cycle;Max_cycle;Signal;HPM_P1;HPM_P2
2022/03/13 00:00:19;;;;;;;17.63;12.07;;;;;;;;;;4971770;28;20193;-75
2022/03/13 00:04:57;;;;;;;17.63;11.73;;;;;;;;;;5192522;27;20508;-75
2022/03/13 00:07:28;;;;;;;15.05;11.60;;;;;;;;;;5161432;27;20230;-77
2022/03/13 00:09:54;;;;;;;17.02;12.63;;;;;;;;;;5123184;28;20714;-77
2022/03/13 00:12:25;;;;;;;19.63;12.10;;;;;;;;;;5147740;27;20195;-76
2022/03/13 00:14:51;;;;;;;14.98;10.73;;;;;;;;;;5133513;27;20443;-76
2022/03/13 00:17:17;;;;;;;14.95;11.32;;;;;;;;;;5102557;28;20205;-79
2022/03/13 00:19:44;;;;;;;18.88;12.48;;;;;;;;;;5078964;28;20184;-77
2022/03/13 00:22:12;;;;;;;16.52;10.77;;;;;;;;;;5028783;28;20187;-77
2022/03/13 00:24:38;;;;;;;15.55;11.43;;;;;;;;;;4915407;28;20297;-78
2022/03/13 00:30:06;;;;;;;16.08;10.90;;;;;;;;;;5193044;27;20812;-75
2022/03/13 00:32:32;;;;;;;16.80;10.95;;;;;;;;;;5169635;27;20208;-77
2022/03/13 00:34:59;;;;;;;14.32;10.80;;;;;;;;;;5189400;27;20200;-75
2022/03/13 00:37:25;;;;;;;13.52;9.85;;;;;;;;;;5175322;27;20205;-77
2022/03/13 00:39:51;;;;;;;13.52;9.45;;;;;;;;;;5146314;27;20188;-77
2022/03/13 00:42:17;;;;;;;14.57;10.20;;;;;;;;;;5039106;28;20267;-77
2022/03/13 00:44:44;;;;;;;14.02;10.38;;;;;;;;;;5049867;28;20209;-78
2022/03/13 00:47:10;;;;;;;13.73;9.57;;;;;;;;;;5001774;28;20216;-77
2022/03/13 00:49:36;;;;;;;16.05;10.52;;;;;;;;;;5019103;28;20228;-75
2022/03/13 00:55:13;;;;;;;14.68;10.85;;;;;;;;;;5192014;27;20512;-76
2022/03/13 00:57:43;;;;;;;14.77;11.00;;;;;;;;;;5151001;27;20215;-77
2022/03/13 01:00:11;;;;;;;18.50;11.73;;;;;;;;;;5171335;27;20427;-77
2022/03/13 01:02:37;;;;;;;19.60;12.25;;;;;;;;;;5128648;27;20292;-79
2022/03/13 01:05:03;;;;;;;18.38;11.13;;;;;;;;;;5072379;28;20194;-78
2022/03/13 01:07:29;;;;;;;14.00;10.60;;;;;;;;;;5081162;28;20211;-79
2022/03/13 01:09:55;;;;;;;17.33;11.35;;;;;;;;;;5105150;28;20647;-78
2022/03/13 01:12:21;;;;;;;18.77;10.90;;;;;;;;;;5052502;28;20289;-78
2022/03/13 01:14:47;;;;;;;16.73;12.30;;;;;;;;;;5003496;28;20232;-77
2022/03/13 01:17:13;;;;;;;18.58;13.63;;;;;;;;;;4871743;29;20464;-77
2022/03/13 01:20:40;;;;;;;17.83;13.10;;;;;;;;;;5193162;27;20481;-77
2022/03/13 01:23:11;;;;;;;21.02;12.85;;;;;;;;;;5187743;27;20205;-75
2022/03/13 01:25:38;;;;;;;18.85;12.70;;;;;;;;;;5153079;27;20226;-79
2022/03/13 01:28:04;;;;;;;15.20;10.90;;;;;;;;;;5130111;27;20203;-78
2022/03/13 01:30:30;;;;;;;17.20;13.75;;;;;;;;;;5113517;28;20192;-77
2022/03/13 01:32:56;;;;;;;19.58;14.10;;;;;;;;;;5089470;28;20192;-78
2022/03/13 01:35:23;;;;;;;20.25;13.93;;;;;;;;;;5075096;28;20194;-78
2022/03/13 01:37:50;;;;;;;17.13;12.02;;;;;;;;;;5041897;28;20213;-76
2022/03/13 01:40:20;;;;;;;16.55;11.90;;;;;;;;;;4884914;28;20696;-78
2022/03/13 01:45:19;;;;;;;17.48;12.43;;;;;;;;;;5192047;27;20296;-78
2022/03/13 01:47:46;;;;;;;16.95;11.20;;;;;;;;;;5168958;27;20213;-77
2022/03/13 01:50:12;;;;;;;19.85;12.30;;;;;;;;;;5191352;27;20181;-78
2022/03/13 01:52:40;;;;;;;16.60;11.88;;;;;;;;;;5171187;27;20250;-77
2022/03/13 01:55:06;;;;;;;16.92;12.15;;;;;;;;;;5155156;27;20192;-78
2022/03/13 01:57:32;;;;;;;15.10;11.20;;;;;;;;;;5124605;28;20337;-77
2022/03/13 01:59:59;;;;;;;15.32;11.77;;;;;;;;;;5124630;28;20544;-76
2022/03/13 02:02:26;;;;;;;16.20;11.38;;;;;;;;;;5073283;28;20217;-76
2022/03/13 02:04:53;;;;;;;16.25;11.88;;;;;;;;;;5048026;28;20249;-77
2022/03/13 02:10:30;;;;;;;15.73;11.55;;;;;;;;;;5192481;27;20489;-80
2022/03/13 02:12:56;;;;;;;19.92;11.35;;;;;;;;;;5168766;27;20290;-75
2022/03/13 02:15:22;;;;;;;20.38;12.70;;;;;;;;;;5171404;27;20194;-78
2022/03/13 02:17:48;;;;;;;15.70;10.60;;;;;;;;;;5144430;27;20223;-77
2022/03/13 02:20:21;;;;;;;14.43;10.25;;;;;;;;;;5066077;28;20195;-79
2022/03/13 02:22:48;;;;;;;14.30;10.27;;;;;;;;;;4998713;28;20187;-75
2022/03/13 02:25:18;;;;;;;15.77;11.73;;;;;;;;;;4934720;28;20280;-77
2022/03/13 02:27:44;;;;;;;19.50;11.48;;;;;;;;;;4821068;29;20213;-75
2022/03/13 02:30:10;;;;;;;18.10;10.83;;;;;;;;;;4767405;29;20245;-77
2022/03/13 02:34:42;;;;;;;14.90;9.80;;;;;;;;;;5179958;27;20502;-78
2022/03/13 02:37:18;;;;;;;18.05;9.82;;;;;;;;;;5174232;27;20205;-77
2022/03/13 02:39:44;;;;;;;14.20;9.50;;;;;;;;;;5154575;27;20185;-77
2022/03/13 02:42:10;;;;;;;16.73;9.60;;;;;;;;;;5124228;27;20184;-77
2022/03/13 02:44:36;;;;;;;15.02;11.07;;;;;;;;;;5040135;28;20658;-75
2022/03/13 02:47:04;;;;;;;16.63;10.05;;;;;;;;;;5046904;28;20208;-75
2022/03/13 02:49:31;;;;;;;14.50;11.15;;;;;;;;;;5052662;28;20189;-79
2022/03/13 02:51:58;;;;;;;14.40;11.77;;;;;;;;;;5055906;28;20541;-76
2022/03/13 02:54:24;;;;;;;18.00;10.48;;;;;;;;;;5037188;28;20292;-77
2022/03/13 02:59:30;;;;;;;13.10;10.32;;;;;;;;;;5192731;27;20500;-76
2022/03/13 03:01:56;;;;;;;16.20;11.30;;;;;;;;;;5187791;27;20196;-76
2022/03/13 03:04:23;;;;;;;12.63;10.10;;;;;;;;;;5170028;27;20269;-77
2022/03/13 03:06:54;;;;;;;12.35;9.07;;;;;;;;;;5159515;27;20450;-77
2022/03/13 03:09:20;;;;;;;14.13;8.98;;;;;;;;;;5143498;27;20273;-79
2022/03/13 03:11:47;;;;;;;13.13;10.00;;;;;;;;;;5082730;28;20620;-77
2022/03/13 03:14:14;;;;;;;14.35;9.98;;;;;;;;;;5083088;28;20839;-77
2022/03/13 03:16:41;;;;;;;13.57;10.10;;;;;;;;;;5100871;28;20260;-76
2022/03/13 03:22:26;;;;;;;13.40;10.27;;;;;;;;;;5193142;27;20477;-77
2022/03/13 03:24:52;;;;;;;17.40;10.53;;;;;;;;;;5187193;27;20197;-77
2022/03/13 03:27:18;;;;;;;16.60;9.67;;;;;;;;;;5157437;27;20451;-75
2022/03/13 03:29:44;;;;;;;15.93;9.43;;;;;;;;;;5170285;27;20429;-78
2022/03/13 03:32:10;;;;;;;15.90;9.87;;;;;;;;;;5153589;27;20898;-75
2022/03/13 03:34:36;;;;;;;14.07;10.40;;;;;;;;;;5080145;28;20448;-77
2022/03/13 03:37:02;;;;;;;13.93;9.70;;;;;;;;;;5055196;28;20274;-77
2022/03/13 03:39:29;;;;;;;15.13;11.32;;;;;;;;;;5007369;28;20624;-77
2022/03/13 03:41:55;;;;;;;15.60;10.35;;;;;;;;;;4995855;28;20842;-78
2022/03/13 03:46:59;;;;;;;17.10;11.60;;;;;;;;;;5180802;27;20502;-76
2022/03/13 03:49:25;;;;;;;15.40;11.55;;;;;;;;;;5187882;27;20189;-78
2022/03/13 03:51:51;;;;;;;15.02;11.57;;;;;;;;;;5192167;27;20629;-77
2022/03/13 03:54:17;;;;;;;14.52;11.02;;;;;;;;;;5189817;27;20530;-77
2022/03/13 03:56:43;;;;;;;16.33;10.10;;;;;;;;;;5116777;27;20221;-77
2022/03/13 03:59:09;;;;;;;15.25;10.50;;;;;;;;;;5106311;28;20611;-78
2022/03/13 04:01:39;;;;;;;14.57;10.13;;;;;;;;;;5093038;28;20552;-78
2022/03/13 04:04:06;;;;;;;15.13;10.15;;;;;;;;;;5062890;28;20197;-75
2022/03/13 04:06:33;;;;;;;13.35;10.60;;;;;;;;;;5098563;28;20220;-75
2022/03/13 04:11:36;;;;;;;16.58;10.15;;;;;;;;;;5151219;27;20491;-76
2022/03/13 04:14:02;;;;;;;14.25;9.05;;;;;;;;;;5145152;27;20272;-76
2022/03/13 04:16:28;;;;;;;13.02;9.27;;;;;;;;;;5123080;28;20291;-78
2022/03/13 04:18:54;;;;;;;13.75;9.98;;;;;;;;;;5128978;28;20194;-78
2022/03/13 04:21:20;;;;;;;12.32;9.05;;;;;;;;;;5092002;28;20189;-77
2022/03/13 04:23:46;;;;;;;13.70;9.30;;;;;;;;;;5071620;28;20216;-77
2022/03/13 04:26:12;;;;;;;14.88;10.32;;;;;;;;;;5024272;28;20313;-78
2022/03/13 04:28:38;;;;;;;16.67;9.97;;;;;;;;;;5052356;28;20283;-77
2022/03/13 04:31:08;;;;;;;17.33;10.57;;;;;;;;;;4942605;28;20490;-78
2022/03/13 04:36:14;;;;;;;14.10;9.90;;;;;;;;;;5187218;27;20497;-77
2022/03/13 04:38:40;;;;;;;14.80;9.57;;;;;;;;;;5188132;27;20211;-77
2022/03/13 04:41:06;;;;;;;14.10;8.80;;;;;;;;;;5192324;27;20187;-77
2022/03/13 04:43:32;;;;;;;15.25;8.98;;;;;;;;;;5161516;27;20639;-76
2022/03/13 04:45:58;;;;;;;13.43;9.50;;;;;;;;;;5152582;27;20229;-75
2022/03/13 04:48:24;;;;;;;16.53;10.30;;;;;;;;;;5126130;28;20183;-78
2022/03/13 04:50:50;;;;;;;15.80;10.17;;;;;;;;;;5151173;27;21377;-75
2022/03/13 04:53:16;;;;;;;13.13;9.23;;;;;;;;;;5162322;27;20978;-78
2022/03/13 04:55:43;;;;;;;17.70;11.23;;;;;;;;;;5045842;27;20532;-78
2022/03/13 05:00:41;;;;;;;14.45;10.18;;;;;;;;;;5192900;27;20302;-77
2022/03/13 05:03:08;;;;;;;13.38;9.18;;;;;;;;;;5187701;27;20650;-75
2022/03/13 05:05:34;;;;;;;14.75;10.50;;;;;;;;;;5190180;27;20196;-76
2022/03/13 05:08:13;;;;;;;11.88;9.70;;;;;;;;;;5142397;27;20282;-77
2022/03/13 05:10:39;;;;;;;14.75;9.98;;;;;;;;;;5083181;28;20204;-77
2022/03/13 05:13:06;;;;;;;16.48;11.00;;;;;;;;;;5047512;28;20646;-75
2022/03/13 05:15:32;;;;;;;13.20;10.00;;;;;;;;;;5017832;28;20209;-77
2022/03/13 05:17:59;;;;;;;13.45;9.57;;;;;;;;;;5052396;28;20299;-77
2022/03/13 05:20:25;;;;;;;17.20;10.65;;;;;;;;;;4983519;28;20227;-78
2022/03/13 05:25:28;;;;;;;12.88;10.38;;;;;;;;;;5192722;27;20751;-76
2022/03/13 05:27:54;;;;;;;15.85;9.90;;;;;;;;;;5164937;27;20260;-76
2022/03/13 05:30:20;;;;;;;13.83;9.70;;;;;;;;;;5171084;27;20182;-76
2022/03/13 05:32:47;;;;;;;13.48;9.90;;;;;;;;;;5168421;27;20427;-77
2022/03/13 05:35:14;;;;;;;14.18;9.05;;;;;;;;;;5152314;27;20240;-76
2022/03/13 05:37:40;;;;;;;12.55;9.77;;;;;;;;;;5084501;28;20212;-75
2022/03/13 05:40:06;;;;;;;13.60;9.20;;;;;;;;;;5083608;28;20196;-77
2022/03/13 05:42:32;;;;;;;16.75;10.45;;;;;;;;;;5067154;28;20277;-76
2022/03/13 05:44:58;;;;;;;11.90;9.60;;;;;;;;;;5050903;28;20216;-77
2022/03/13 05:50:04;;;;;;;14.68;10.13;;;;;;;;;;5193082;27;20480;-79
2022/03/13 05:52:31;;;;;;;17.65;10.68;;;;;;;;;;5187035;27;20272;-76
2022/03/13 05:54:57;;;;;;;12.60;9.35;;;;;;;;;;5172205;27;20648;-75
2022/03/13 05:57:23;;;;;;;14.45;9.45;;;;;;;;;;5155833;27;20213;-77
2022/03/13 05:59:49;;;;;;;15.73;10.75;;;;;;;;;;5121021;27;20184;-76
2022/03/13 06:02:15;;;;;;;13.60;9.17;;;;;;;;;;5094768;28;20196;-78
2022/03/13 06:04:41;;;;;;;12.67;9.20;;;;;;;;;;5110234;28;20488;-77
2022/03/13 06:07:07;;;;;;;14.63;10.20;;;;;;;;;;5086385;28;20545;-78
2022/03/13 06:09:33;;;;;;;18.17;10.20;;;;;;;;;;5020666;28;20491;-77
2022/03/13 06:14:46;;;;;;;14.20;9.80;;;;;;;;;;5193079;27;20484;-76
2022/03/13 06:17:12;;;;;;;11.80;8.70;;;;;;;;;;5173507;27;20205;-78
2022/03/13 06:19:42;;;;;;;12.10;9.13;;;;;;;;;;5171248;27;20896;-76
2022/03/13 06:22:08;;;;;;;15.65;10.05;;;;;;;;;;5170253;27;20430;-78
2022/03/13 06:24:34;;;;;;;15.43;10.00;;;;;;;;;;5122746;27;20200;-78
2022/03/13 06:27:00;;;;;;;14.93;9.40;;;;;;;;;;5092631;28;20306;-78
2022/03/13 06:29:26;;;;;;;16.10;10.25;;;;;;;;;;5051719;28;20854;-79
2022/03/13 06:31:52;;;;;;;13.03;10.10;;;;;;;;;;5053541;28;20266;-75
2022/03/13 06:34:19;;;;;;;13.93;9.45;;;;;;;;;;5029680;28;20538;-77
2022/03/13 06:39:57;;;;;;;13.35;8.30;;;;;;;;;;5193176;27;20488;-76
2022/03/13 06:42:23;;;;;;;14.47;9.33;;;;;;;;;;5170704;27;20197;-78
2022/03/13 06:44:49;;;;;;;19.37;9.67;;;;;;;;;;5178080;27;20498;-76
2022/03/13 06:47:15;;;;;;;14.90;9.07;;;;;;;;;;5133215;27;20829;-75
2022/03/13 06:49:41;;;;;;;12.77;9.25;;;;;;;;;;5118171;28;20901;-76
2022/03/13 06:52:07;;;;;;;11.30;8.95;;;;;;;;;;5084141;28;20199;-74
2022/03/13 06:54:33;;;;;;;16.80;10.52;;;;;;;;;;5079444;28;20200;-73
2022/03/13 06:56:59;;;;;;;17.73;8.87;;;;;;;;;;5061328;28;20286;-76
2022/03/13 06:59:25;;;;;;;16.77;9.43;;;;;;;;;;5019907;28;20480;-75
2022/03/13 07:05:38;;;;;;;12.43;8.85;;;;;;;;;;5191783;27;20496;-77
2022/03/13 07:08:04;;;;;;;14.80;10.60;;;;;;;;;;5170793;27;20197;-76
2022/03/13 07:10:30;;;;;;;12.63;8.88;;;;;;;;;;5191946;27;20252;-78
2022/03/13 07:12:58;;;;;;;15.70;9.97;;;;;;;;;;5165052;27;20186;-76
2022/03/13 07:15:26;;;;;;;16.95;10.02;;;;;;;;;;5093670;28;20491;-77
2022/03/13 07:17:53;;;;;;;16.05;10.35;;;;;;;;;;5038626;28;20205;-77
2022/03/13 07:20:19;;;;;;;16.77;9.48;;;;;;;;;;5014194;28;20200;-76
2022/03/13 07:22:45;;;;;;;17.25;10.27;;;;;;;;;;4902110;28;20207;-76
2022/03/13 07:25:12;;;;;;;14.88;10.50;;;;;;;;;;4851831;29;20247;-79
2022/03/13 07:30:21;;;;;;;13.73;10.82;;;;;;;;;;5192971;27;20508;-76
2022/03/13 07:32:47;;;;;;;15.90;9.32;;;;;;;;;;5187749;27;20536;-77
2022/03/13 07:35:13;;;;;;;14.98;10.73;;;;;;;;;;5175188;27;20272;-77
2022/03/13 07:37:39;;;;;;;10.55;9.27;;;;;;;;;;5153061;27;20232;-76
2022/03/13 07:40:05;;;;;;;12.70;10.25;;;;;;;;;;5100595;28;20185;-77
2022/03/13 07:42:31;;;;;;;15.57;9.93;;;;;;;;;;5081560;28;20192;-75
2022/03/13 07:44:57;;;;;;;14.23;9.70;;;;;;;;;;5096749;28;20545;-77
2022/03/13 07:47:25;;;;;;;15.60;9.57;;;;;;;;;;5012753;28;20457;-76
2022/03/13 07:49:51;;;;;;;13.63;10.00;;;;;;;;;;4929725;28;20217;-77
2022/03/13 07:55:31;;;;;;;14.60;10.52;;;;;;;;;;5170944;27;20501;-76
2022/03/13 07:57:57;;;;;;;11.80;8.43;;;;;;;;;;5137666;27;20205;-76
2022/03/13 08:00:24;;;;;;;11.97;9.13;;;;;;;;;;5150392;27;20193;-78
2022/03/13 08:02:51;;;;;;;16.15;9.82;;;;;;;;;;5110064;28;20425;-75
2022/03/13 08:05:19;;;;;;;15.75;9.95;;;;;;;;;;5031896;28;20538;-77
2022/03/13 08:07:45;;;;;;;16.55;11.95;;;;;;;;;;5015510;28;20259;-78
2022/03/13 08:10:11;;;;;;;20.35;12.80;;;;;;;;;;5020436;28;20229;-76
2022/03/13 08:12:38;;;;;;;19.20;12.48;;;;;;;;;;5009312;28;20190;-78
2022/03/13 08:15:08;;;;;;;18.65;11.25;;;;;;;;;;4949549;28;20220;-77
2022/03/13 08:20:12;;;;;;;14.38;9.57;;;;;;;;;;5192662;27;20496;-77
2022/03/13 08:22:38;;;;;;;13.43;9.40;;;;;;;;;;5187655;27;20542;-77
2022/03/13 08:25:06;;;;;;;16.10;9.90;;;;;;;;;;5177375;27;20189;-76
2022/03/13 08:27:33;;;;;;;13.77;9.95;;;;;;;;;;5134062;27;20555;-78
2022/03/13 08:29:59;;;;;;;9.80;8.32;;;;;;;;;;5140545;27;20277;-78
2022/03/13 08:32:25;;;;;;;14.38;9.98;;;;;;;;;;5143191;27;20269;-75
2022/03/13 08:34:53;;;;;;;13.35;10.15;;;;;;;;;;5117353;27;20226;-75
2022/03/13 08:37:19;;;;;;;15.73;9.82;;;;;;;;;;5077990;28;20240;-75
2022/03/13 08:39:45;;;;;;;13.13;9.05;;;;;;;;;;5106551;28;20272;-77
2022/03/13 08:42:11;;;;;;;13.25;9.48;;;;;;;;;;5024489;28;20185;-78
2022/03/13 08:45:55;;;;;;;16.00;10.73;;;;;;;;;;5189863;27;20470;-75
2022/03/13 08:48:21;;;;;;;15.80;9.73;;;;;;;;;;5187616;27;20477;-77
2022/03/13 08:50:47;;;;;;;13.20;9.93;;;;;;;;;;5172295;27;20538;-77
2022/03/13 08:53:13;;;;;;;13.30;10.37;;;;;;;;;;5191617;27;20429;-76
2022/03/13 08:55:39;;;;;;;16.90;10.30;;;;;;;;;;5140561;27;20443;-76
2022/03/13 08:58:06;;;;;;;14.13;11.00;;;;;;;;;;5134685;27;20466;-76
2022/03/13 09:00:34;;;;;;;13.10;10.67;;;;;;;;;;5141849;27;20931;-76
2022/03/13 09:03:01;;;;;;;12.93;9.20;;;;;;;;;;5088778;27;20454;-77
2022/03/13 09:05:26;;;;;;;15.40;10.23;;;;;;;;;;5028857;28;20478;-77
2022/03/13 09:10:53;;;;;;;15.83;10.80;;;;;;;;;;5192882;27;20477;-76
2022/03/13 09:13:20;;;;;;;13.37;10.67;;;;;;;;;;5187225;27;20400;-76
2022/03/13 09:15:47;;;;;;;15.47;11.33;;;;;;;;;;5189596;27;20428;-77
2022/03/13 09:18:13;;;;;;;14.60;10.17;;;;;;;;;;5170252;27;20480;-77
2022/03/13 09:20:39;;;;;;;13.83;11.17;;;;;;;;;;5121572;27;20439;-78
2022/03/13 09:23:06;;;;;;;14.77;11.10;;;;;;;;;;5068771;28;20491;-77
2022/03/13 09:25:32;;;;;;;17.73;11.13;;;;;;;;;;4998090;28;20453;-76
2022/03/13 09:27:58;;;;;;;15.00;10.10;;;;;;;;;;4896466;29;20994;-76
2022/03/13 09:30:24;;;;;;;13.73;10.30;;;;;;;;;;4750497;29;20470;-76
2022/03/13 09:33:37;;;;;;;17.57;11.60;;;;;;;;;;5192651;27;20485;-77
2022/03/13 09:36:03;;;;;;;14.77;10.50;;;;;;;;;;5184990;27;20444;-79
2022/03/13 09:38:29;;;;;;;15.70;12.03;;;;;;;;;;5172589;27;20394;-78
2022/03/13 09:40:55;;;;;;;15.20;11.10;;;;;;;;;;5170480;27;20404;-77
2022/03/13 09:43:21;;;;;;;15.70;12.07;;;;;;;;;;5146802;27;20935;-78
2022/03/13 09:45:48;;;;;;;13.90;11.13;;;;;;;;;;5099254;27;20413;-77
2022/03/13 09:48:17;;;;;;;13.53;11.43;;;;;;;;;;5061915;28;20409;-76
2022/03/13 09:50:43;;;;;;;13.17;10.10;;;;;;;;;;5082485;28;20433;-78
2022/03/13 09:53:10;;;;;;;13.23;11.23;;;;;;;;;;5033989;28;21099;-78
2022/03/13 09:58:09;;;;;;;15.27;11.43;;;;;;;;;;5193038;27;20643;-76
2022/03/13 10:00:36;;;;;;;20.83;13.70;;;;;;;;;;5187695;27;20901;-78
2022/03/13 10:03:05;;;;;;;14.47;12.20;;;;;;;;;;5191906;27;20410;-76
2022/03/13 10:05:40;;;;;;;16.13;12.27;;;;;;;;;;5189992;27;20465;-75
2022/03/13 10:08:06;;;;;;;12.67;11.33;;;;;;;;;;5169488;27;20410;-73
2022/03/13 10:10:42;;;;;;;14.23;11.90;;;;;;;;;;5185736;27;20428;-74
2022/03/13 10:13:08;;;;;;;19.10;13.10;;;;;;;;;;5127116;27;20426;-75
2022/03/13 10:15:46;;;;;;;16.37;12.93;;;;;;;;;;5096034;27;20434;-78
2022/03/13 10:18:13;;;;;;;14.13;10.97;;;;;;;;;;4986857;28;20452;-76
2022/03/13 10:23:16;;;;;;;15.77;12.77;;;;;;;;;;5178247;27;20478;-77
2022/03/13 10:25:43;;;;;;;12.57;11.23;;;;;;;;;;5137803;27;20461;-77
2022/03/13 10:28:24;;;;;;;13.27;11.50;;;;;;;;;;5168178;27;20427;-76
2022/03/13 10:30:59;;;;;;;14.47;12.00;;;;;;;;;;5142054;27;20929;-77
2022/03/13 10:33:27;;;;;;;13.63;12.23;;;;;;;;;;4998373;28;20427;-78
2022/03/13 10:36:06;;;;;;;16.23;12.70;;;;;;;;;;4963387;28;20990;-76
2022/03/13 10:38:34;;;;;;;17.47;12.80;;;;;;;;;;4909093;29;20927;-75
2022/03/13 10:41:01;;;;;;;12.77;11.47;;;;;;;;;;4906705;29;20523;-76
2022/03/13 10:43:29;;;;;;;15.40;12.33;;;;;;;;;;4822176;29;20810;-75
2022/03/13 10:48:21;;;;;;;17.77;12.67;;;;;;;;;;5187690;27;20288;-75
2022/03/13 10:50:47;;;;;;;18.40;14.07;;;;;;;;;;5162487;27;20955;-79
2022/03/13 10:53:14;;;;;;;17.53;14.77;;;;;;;;;;5135505;27;20435;-78
2022/03/13 10:55:43;;;;;;;16.10;13.63;;;;;;;;;;5095734;28;20428;-79
2022/03/13 10:58:16;;;;;;;17.30;13.70;;;;;;;;;;5047268;28;20426;-79
2022/03/13 11:00:42;;;;;;;16.13;13.37;;;;;;;;;;5040342;28;21781;-78
2022/03/13 11:03:17;;;;;;;16.13;13.80;;;;;;;;;;4956942;28;20445;-79
2022/03/13 11:05:43;;;;;;;14.00;12.40;;;;;;;;;;4803726;29;20821;-77
2022/03/13 11:08:09;;;;;;;16.33;12.47;;;;;;;;;;4714445;30;20500;-78
2022/03/13 11:13:15;;;;;;;16.93;12.87;;;;;;;;;;5182739;27;20478;-76
2022/03/13 11:15:44;;;;;;;16.63;14.07;;;;;;;;;;5154910;27;20760;-74
2022/03/13 11:18:11;;;;;;;17.20;13.90;;;;;;;;;;5119460;27;20426;-72
2022/03/13 11:20:39;;;;;;;17.37;14.67;;;;;;;;;;5114673;27;20454;-73
2022/03/13 11:23:08;;;;;;;13.97;12.50;;;;;;;;;;5064884;28;20760;-74
2022/03/13 11:25:35;;;;;;;16.67;13.03;;;;;;;;;;4941486;28;20455;-75
2022/03/13 11:28:01;;;;;;;15.00;13.17;;;;;;;;;;4840131;29;20452;-74
2022/03/13 11:30:32;;;;;;;15.23;12.40;;;;;;;;;;4695168;30;20452;-72
2022/03/13 11:33:00;;;;;;;14.40;12.90;;;;;;;;;;4625814;30;20492;-74
2022/03/13 11:37:42;;;;;;;12.63;11.30;;;;;;;;;;5166074;27;20501;-73
2022/03/13 11:40:09;;;;;;;14.80;12.57;;;;;;;;;;5145189;27;20537;-74
2022/03/13 11:42:48;;;;;;;15.33;12.80;;;;;;;;;;5153311;27;20449;-73
2022/03/13 11:45:44;;;;;;;15.53;13.17;;;;;;;;;;5134639;27;20793;-75
2022/03/13 11:48:19;;;;;;;17.23;12.63;;;;;;;;;;5010319;28;20444;-74
2022/03/13 11:50:46;;;;;;;16.60;12.67;;;;;;;;;;4970801;28;20791;-74
2022/03/13 11:53:19;;;;;;;18.73;14.10;;;;;;;;;;5001210;28;20844;-73
2022/03/13 11:56:03;;;;;;;17.47;12.47;;;;;;;;;;4892826;28;20489;-73
2022/03/13 12:01:38;;;;;;;15.23;13.10;;;;;;;;;;5192794;27;20476;-73
2022/03/13 12:04:04;;;;;;;15.87;12.67;;;;;;;;;;5171118;27;20425;-72
2022/03/13 12:06:39;;;;;;;14.53;12.80;;;;;;;;;;5170263;27;20455;-76
2022/03/13 12:09:08;;;;;;;13.00;11.70;;;;;;;;;;5170352;27;20422;-76
2022/03/13 12:11:41;;;;;;;12.80;11.47;;;;;;;;;;5131450;27;20430;-76
2022/03/13 12:14:11;;;;;;;14.40;12.27;;;;;;;;;;5044980;28;20500;-77
2022/03/13 12:16:39;;;;;;;12.90;11.50;;;;;;;;;;4921652;28;20485;-75
2022/03/13 12:19:05;;;;;;;15.47;12.30;;;;;;;;;;4936314;29;20428;-76
2022/03/13 12:21:32;;;;;;;14.50;13.00;;;;;;;;;;4818200;29;20446;-76
2022/03/13 12:25:53;;;;;;;14.87;12.30;;;;;;;;;;5176968;27;20482;-77
2022/03/13 12:28:20;;;;;;;14.20;11.97;;;;;;;;;;5152994;27;20466;-75
2022/03/13 12:30:46;;;;;;;19.13;12.77;;;;;;;;;;5126498;27;20782;-76
2022/03/13 12:33:14;;;;;;;15.43;11.97;;;;;;;;;;5181251;27;20431;-75
2022/03/13 12:35:42;;;;;;;18.30;12.23;;;;;;;;;;5115590;28;20800;-77
2022/03/13 12:38:08;;;;;;;13.70;11.70;;;;;;;;;;5068075;28;20440;-78
2022/03/13 12:40:46;;;;;;;13.93;12.10;;;;;;;;;;5061528;28;20431;-75
2022/03/13 12:43:12;;;;;;;12.30;10.83;;;;;;;;;;4923352;28;20441;-76
2022/03/13 12:45:51;;;;;;;13.87;12.37;;;;;;;;;;4862632;28;20629;-78
2022/03/13 12:50:37;;;;;;;15.10;11.03;;;;;;;;;;5192869;27;20484;-75
2022/03/13 12:53:04;;;;;;;10.93;9.80;;;;;;;;;;5169426;27;20882;-75
2022/03/13 12:55:31;;;;;;;14.20;10.10;;;;;;;;;;5139857;27;20442;-77
2022/03/13 12:57:59;;;;;;;10.73;9.63;;;;;;;;;;5108804;28;20492;-75
2022/03/13 13:00:32;;;;;;;9.87;8.87;;;;;;;;;;5056678;28;20884;-77
2022/03/13 13:02:59;;;;;;;10.67;8.80;;;;;;;;;;4968933;28;20433;-78
2022/03/13 13:05:27;;;;;;;13.63;10.97;;;;;;;;;;4860312;29;20441;-75
2022/03/13 13:07:54;;;;;;;12.90;11.60;;;;;;;;;;4766390;29;20827;-77
2022/03/13 13:13:01;;;;;;;12.27;9.77;;;;;;;;;;5177467;27;20856;-76
2022/03/13 13:15:27;;;;;;;10.90;9.70;;;;;;;;;;5159330;27;20422;-76
2022/03/13 13:17:53;;;;;;;12.00;10.00;;;;;;;;;;5150894;27;20463;-77
2022/03/13 13:20:21;;;;;;;13.73;11.10;;;;;;;;;;5143986;27;20463;-79
2022/03/13 13:22:48;;;;;;;10.87;9.87;;;;;;;;;;5088405;28;20768;-77
2022/03/13 13:25:21;;;;;;;12.17;10.87;;;;;;;;;;5033016;28;20486;-79
2022/03/13 13:27:51;;;;;;;10.20;8.83;;;;;;;;;;5002384;28;20459;-77
2022/03/13 13:30:17;;;;;;;11.60;9.80;;;;;;;;;;4974239;28;20428;-77
2022/03/13 13:32:49;;;;;;;12.17;10.90;;;;;;;;;;4852122;29;20486;-78
2022/03/13 13:37:58;;;;;;;11.60;10.40;;;;;;;;;;5179042;27;20328;-77
2022/03/13 13:40:25;;;;;;;14.63;10.33;;;;;;;;;;5153648;27;20434;-76
2022/03/13 13:42:58;;;;;;;12.27;10.07;;;;;;;;;;5142431;27;20491;-78
2022/03/13 13:45:28;;;;;;;10.87;9.77;;;;;;;;;;5122667;27;20485;-77
2022/03/13 13:47:54;;;;;;;11.30;10.20;;;;;;;;;;5067544;28;20452;-76
2022/03/13 13:50:27;;;;;;;10.93;9.37;;;;;;;;;;5051663;28;20433;-77
2022/03/13 13:53:01;;;;;;;10.80;9.20;;;;;;;;;;4912367;28;20443;-77
2022/03/13 13:55:28;;;;;;;9.80;8.80;;;;;;;;;;4824369;29;20436;-76
2022/03/13 14:01:31;;;;;;;9.93;8.93;;;;;;;;;;5180566;27;21024;-76
2022/03/13 14:03:57;;;;;;;10.93;9.47;;;;;;;;;;5173893;27;20419;-77
2022/03/13 14:06:24;;;;;;;10.63;8.83;;;;;;;;;;5170249;27;20450;-77
2022/03/13 14:08:50;;;;;;;9.27;8.33;;;;;;;;;;5175011;27;20433;-75
2022/03/13 14:11:17;;;;;;;10.20;8.60;;;;;;;;;;5142102;27;20430;-76
2022/03/13 14:13:44;;;;;;;10.60;9.50;;;;;;;;;;5085564;28;20480;-76
2022/03/13 14:16:11;;;;;;;8.77;7.93;;;;;;;;;;5029539;28;20469;-77
2022/03/13 14:18:37;;;;;;;8.67;7.77;;;;;;;;;;4983738;28;20589;-77
2022/03/13 14:21:03;;;;;;;14.73;9.10;;;;;;;;;;4762602;29;20504;-77
2022/03/13 14:24:54;;;;;;;9.50;8.50;;;;;;;;;;5198004;27;20476;-76
2022/03/13 14:27:20;;;;;;;8.80;7.90;;;;;;;;;;5176694;27;20438;-75
2022/03/13 14:29:46;;;;;;;8.80;7.60;;;;;;;;;;5172949;27;20437;-76
2022/03/13 14:32:12;;;;;;;8.87;7.93;;;;;;;;;;5143867;27;20486;-77
2022/03/13 14:34:38;;;;;;;7.83;7.00;;;;;;;;;;5014895;28;20934;-77
2022/03/13 14:37:04;;;;;;;10.63;8.00;;;;;;;;;;4950792;28;20462;-75
2022/03/13 14:39:30;;;;;;;9.30;8.40;;;;;;;;;;4895764;28;20485;-78
2022/03/13 14:41:57;;;;;;;9.77;8.80;;;;;;;;;;4733734;29;20453;-76
2022/03/13 14:44:23;;;;;;;10.30;9.30;;;;;;;;;;4581384;30;20502;-75
2022/03/13 14:49:06;;;;;;;16.10;9.10;;;;;;;;;;5177577;27;20505;-77
2022/03/13 14:51:33;;;;;;;10.93;8.27;;;;;;;;;;5170746;27;20437;-77
2022/03/13 14:53:59;;;;;;;10.47;9.37;;;;;;;;;;5191966;27;20469;-76
2022/03/13 14:56:25;;;;;;;12.00;9.47;;;;;;;;;;5184344;27;20446;-76
2022/03/13 14:58:51;;;;;;;9.30;8.40;;;;;;;;;;5105635;28;20441;-77
2022/03/13 15:01:17;;;;;;;14.57;8.57;;;;;;;;;;5111239;28;20435;-76
2022/03/13 15:03:43;;;;;;;9.67;8.77;;;;;;;;;;5108095;28;20484;-76
2022/03/13 15:06:09;;;;;;;11.53;9.50;;;;;;;;;;5078739;28;20491;-77
2022/03/13 15:08:37;;;;;;;8.97;8.10;;;;;;;;;;4923775;28;20484;-77
2022/03/13 15:13:40;;;;;;;10.47;8.30;;;;;;;;;;5192622;27;20845;-77
2022/03/13 15:16:06;;;;;;;10.33;9.23;;;;;;;;;;5182773;27;20553;-74
2022/03/13 15:18:33;;;;;;;10.43;9.30;;;;;;;;;;5170848;27;20827;-74
2022/03/13 15:21:00;;;;;;;14.17;9.57;;;;;;;;;;5170050;27;20773;-76
2022/03/13 15:23:27;;;;;;;10.73;9.73;;;;;;;;;;5147176;27;20994;-76
2022/03/13 15:25:53;;;;;;;11.30;10.10;;;;;;;;;;5065070;28;20933;-75
2022/03/13 15:28:19;;;;;;;9.03;8.13;;;;;;;;;;5018366;28;20457;-76
2022/03/13 15:30:46;;;;;;;10.83;8.90;;;;;;;;;;4987194;28;20468;-76
2022/03/13 15:33:12;;;;;;;10.70;9.03;;;;;;;;;;4870970;29;20479;-78
2022/03/13 15:38:12;;;;;;;12.03;9.93;;;;;;;;;;5193082;27;20302;-77
2022/03/13 15:40:38;;;;;;;11.97;9.63;;;;;;;;;;5188109;27;20432;-75
2022/03/13 15:43:05;;;;;;;9.53;8.60;;;;;;;;;;5192217;27;20418;-76
2022/03/13 15:45:31;;;;;;;11.17;9.97;;;;;;;;;;5174545;27;20441;-73
2022/03/13 15:47:58;;;;;;;15.90;9.37;;;;;;;;;;5141342;27;20451;-76
2022/03/13 15:50:25;;;;;;;10.27;9.20;;;;;;;;;;5135272;27;20420;-76
2022/03/13 15:52:51;;;;;;;10.47;9.37;;;;;;;;;;5124711;28;20428;-75
2022/03/13 15:55:17;;;;;;;12.10;9.30;;;;;;;;;;5121139;28;20424;-76
2022/03/13 15:57:43;;;;;;;9.87;8.87;;;;;;;;;;5043910;28;20538;-76
2022/03/13 16:02:48;;;;;;;13.33;8.73;;;;;;;;;;5192949;27;20497;-76
2022/03/13 16:05:17;;;;;;;11.13;8.80;;;;;;;;;;5187056;27;20433;-75